Time;durP1;ratioP1;P1;durP2;ratioP2;P2;SDS_P1;SDS_P2;PMS_P1;PMS_P2;Temp;Humidity;BMP_temperature;BMP_pressure;BME280_temperature;BME280_humidity;BME280_pressure;Samples;Min_cycle;Max_cycle;Signal;HPM_P1;HPM_P2
2021/06/19 00:01:05;;;;;;;6.82;5.63;;;;;;;;;;4992858;28;20487;-76
2021/06/19 00:03:31;;;;;;;10.30;5.80;;;;;;;;;;4993060;28;20065;-74
2021/06/19 00:05:57;;;;;;;7.05;5.60;;;;;;;;;;4991737;28;20057;-75
2021/06/19 00:08:26;;;;;;;7.75;5.82;;;;;;;;;;4991042;28;20380;-74
2021/06/19 00:10:52;;;;;;;7.85;6.15;;;;;;;;;;4991799;28;20061;-74
2021/06/19 00:13:17;;;;;;;6.53;5.25;;;;;;;;;;4991639;28;20041;-74
2021/06/19 00:15:44;;;;;;;7.30;6.60;;;;;;;;;;4991650;28;20034;-75
2021/06/19 00:18:10;;;;;;;7.35;6.53;;;;;;;;;;4992597;28;20042;-75
2021/06/19 00:20:36;;;;;;;10.43;6.28;;;;;;;;;;4991581;28;20034;-76
2021/06/19 00:23:02;;;;;;;23.30;10.00;;;;;;;;;;5008096;28;20530;-77
2021/06/19 00:25:29;;;;;;;9.73;6.55;;;;;;;;;;4992044;28;20037;-75
2021/06/19 00:27:55;;;;;;;7.85;6.18;;;;;;;;;;5008560;28;20093;-76
2021/06/19 00:30:22;;;;;;;14.30;6.93;;;;;;;;;;4993251;28;20100;-76
2021/06/19 00:32:48;;;;;;;9.90;6.47;;;;;;;;;;4993199;28;20031;-76
2021/06/19 00:35:15;;;;;;;8.55;6.43;;;;;;;;;;4991651;28;20450;-75
2021/06/19 00:37:40;;;;;;;14.35;6.88;;;;;;;;;;4992655;28;20105;-75
2021/06/19 00:40:10;;;;;;;9.93;6.78;;;;;;;;;;4991954;28;20471;-75
2021/06/19 00:42:35;;;;;;;8.98;6.93;;;;;;;;;;5007086;28;20066;-75
2021/06/19 00:45:02;;;;;;;6.82;6.13;;;;;;;;;;4991009;28;20050;-76
2021/06/19 00:47:28;;;;;;;7.60;6.53;;;;;;;;;;4990812;28;20117;-74
2021/06/19 00:49:54;;;;;;;9.40;7.43;;;;;;;;;;4992211;28;20029;-76
2021/06/19 00:52:20;;;;;;;7.13;6.43;;;;;;;;;;4991957;28;20387;-74
2021/06/19 00:54:46;;;;;;;8.30;6.53;;;;;;;;;;4992576;28;20364;-75
2021/06/19 00:57:12;;;;;;;10.05;6.45;;;;;;;;;;5006824;28;20096;-74
2021/06/19 00:59:39;;;;;;;10.45;6.75;;;;;;;;;;4990514;28;20038;-75
2021/06/19 01:02:04;;;;;;;13.30;6.85;;;;;;;;;;4991446;28;20030;-75
2021/06/19 01:04:31;;;;;;;8.73;6.35;;;;;;;;;;4992013;28;20358;-75
2021/06/19 01:06:59;;;;;;;10.52;6.43;;;;;;;;;;4991952;28;20030;-75
2021/06/19 01:09:24;;;;;;;8.73;6.97;;;;;;;;;;4990528;28;20022;-74
2021/06/19 01:11:51;;;;;;;8.00;6.88;;;;;;;;;;4991921;28;20026;-75
2021/06/19 01:14:17;;;;;;;9.73;7.97;;;;;;;;;;4990467;28;20057;-75
2021/06/19 01:16:47;;;;;;;10.13;7.25;;;;;;;;;;4990164;28;20422;-74
2021/06/19 01:19:13;;;;;;;9.20;6.75;;;;;;;;;;4989612;28;20121;-74
2021/06/19 01:21:38;;;;;;;7.93;7.13;;;;;;;;;;4991635;28;20117;-75
2021/06/19 01:24:04;;;;;;;10.88;7.88;;;;;;;;;;4990170;28;20035;-74
2021/06/19 01:26:31;;;;;;;13.32;7.68;;;;;;;;;;4991500;28;20026;-74
2021/06/19 01:28:58;;;;;;;10.88;7.75;;;;;;;;;;4991809;28;20113;-74
2021/06/19 01:31:24;;;;;;;8.73;7.75;;;;;;;;;;4989966;28;20030;-74
2021/06/19 01:33:50;;;;;;;11.18;7.03;;;;;;;;;;4990496;28;20044;-75
2021/06/19 01:36:17;;;;;;;21.02;8.50;;;;;;;;;;4991590;28;20030;-73
2021/06/19 01:38:47;;;;;;;8.43;7.10;;;;;;;;;;4990302;28;20031;-75
2021/06/19 01:41:23;;;;;;;7.60;6.65;;;;;;;;;;4991140;28;20100;-75
2021/06/19 01:43:56;;;;;;;8.13;6.78;;;;;;;;;;4991050;28;20050;-73
2021/06/19 01:46:21;;;;;;;7.97;6.45;;;;;;;;;;5005959;28;20084;-76
2021/06/19 01:48:47;;;;;;;8.82;6.63;;;;;;;;;;4991097;28;20117;-73
2021/06/19 01:51:16;;;;;;;10.52;7.22;;;;;;;;;;4991151;28;20034;-75
2021/06/19 01:53:43;;;;;;;12.05;7.80;;;;;;;;;;5006419;28;20391;-74
2021/06/19 01:56:10;;;;;;;13.35;6.93;;;;;;;;;;4991192;28;20030;-74
2021/06/19 01:58:36;;;;;;;9.60;7.72;;;;;;;;;;4991393;28;20467;-75
2021/06/19 02:01:07;;;;;;;10.60;7.35;;;;;;;;;;4991169;28;20479;-75
2021/06/19 02:03:33;;;;;;;9.40;8.50;;;;;;;;;;4989580;28;20490;-75
2021/06/19 02:05:58;;;;;;;9.52;8.23;;;;;;;;;;4991256;28;20038;-75
2021/06/19 02:08:24;;;;;;;10.82;7.53;;;;;;;;;;4989436;28;20031;-75
2021/06/19 02:10:50;;;;;;;9.77;8.23;;;;;;;;;;4989910;28;20427;-75
2021/06/19 02:13:16;;;;;;;13.75;8.13;;;;;;;;;;4989739;28;20026;-75
2021/06/19 02:15:44;;;;;;;9.63;7.57;;;;;;;;;;4990242;28;20018;-78
2021/06/19 02:18:10;;;;;;;12.43;8.40;;;;;;;;;;4988596;28;20399;-78
2021/06/19 02:20:35;;;;;;;15.18;9.18;;;;;;;;;;4990059;28;20039;-78
2021/06/19 02:23:01;;;;;;;12.48;8.30;;;;;;;;;;4990217;28;20019;-78
2021/06/19 02:25:29;;;;;;;9.00;8.02;;;;;;;;;;4990561;28;20034;-77
2021/06/19 02:28:10;;;;;;;10.13;7.65;;;;;;;;;;4988868;28;20030;-78
2021/06/19 02:30:41;;;;;;;14.50;8.18;;;;;;;;;;4991304;28;20470;-78
2021/06/19 02:33:07;;;;;;;10.35;8.60;;;;;;;;;;4992388;28;20030;-76
2021/06/19 02:35:35;;;;;;;8.88;8.02;;;;;;;;;;4993716;28;20038;-76
2021/06/19 02:38:03;;;;;;;8.93;8.02;;;;;;;;;;4992631;28;20030;-78
2021/06/19 02:40:30;;;;;;;11.52;8.55;;;;;;;;;;4994335;28;20026;-78
2021/06/19 02:42:55;;;;;;;11.27;7.57;;;;;;;;;;4992076;28;20053;-78
2021/06/19 02:45:21;;;;;;;14.23;8.40;;;;;;;;;;5008653;28;20109;-78
2021/06/19 02:47:52;;;;;;;9.07;8.15;;;;;;;;;;4993797;28;20050;-77
2021/06/19 02:50:21;;;;;;;8.68;7.78;;;;;;;;;;4993606;28;20030;-78
2021/06/19 02:52:47;;;;;;;11.57;8.75;;;;;;;;;;4993822;28;20022;-78
2021/06/19 02:55:15;;;;;;;11.13;8.45;;;;;;;;;;4993472;28;20087;-79
2021/06/19 02:57:41;;;;;;;9.27;8.35;;;;;;;;;;4992350;28;20026;-77
2021/06/19 03:00:09;;;;;;;13.13;8.48;;;;;;;;;;4993243;28;20037;-77
2021/06/19 03:02:35;;;;;;;9.30;8.07;;;;;;;;;;4993637;28;20033;-78
2021/06/19 03:05:00;;;;;;;8.95;8.02;;;;;;;;;;4995930;28;20030;-78
2021/06/19 03:07:26;;;;;;;9.45;8.45;;;;;;;;;;4994338;28;20048;-78
2021/06/19 03:09:53;;;;;;;14.77;9.20;;;;;;;;;;4993898;28;20109;-78
2021/06/19 03:12:18;;;;;;;12.80;8.48;;;;;;;;;;4991674;28;20014;-78
2021/06/19 03:14:44;;;;;;;8.70;7.78;;;;;;;;;;4991819;28;20129;-77
2021/06/19 03:17:10;;;;;;;11.00;7.97;;;;;;;;;;5007733;28;20286;-77
2021/06/19 03:19:35;;;;;;;9.35;8.25;;;;;;;;;;4991410;28;20026;-77
2021/06/19 03:22:01;;;;;;;9.63;8.38;;;;;;;;;;4991388;28;20386;-77
2021/06/19 03:24:27;;;;;;;11.68;8.45;;;;;;;;;;4992550;28;20018;-78
2021/06/19 03:26:54;;;;;;;11.88;8.65;;;;;;;;;;4992693;28;20132;-77
2021/06/19 03:29:20;;;;;;;14.05;9.35;;;;;;;;;;4992733;28;20027;-77
2021/06/19 03:31:47;;;;;;;14.77;9.05;;;;;;;;;;4992727;28;20438;-78
2021/06/19 03:34:13;;;;;;;25.17;9.15;;;;;;;;;;4992926;28;20089;-77
2021/06/19 03:36:39;;;;;;;15.70;9.30;;;;;;;;;;4993263;28;20053;-77
2021/06/19 03:39:05;;;;;;;11.50;9.00;;;;;;;;;;4991813;28;20026;-77
2021/06/19 03:41:30;;;;;;;24.65;10.27;;;;;;;;;;4992169;28;20074;-77
2021/06/19 03:43:57;;;;;;;11.70;9.07;;;;;;;;;;4991993;28;20026;-78
2021/06/19 03:46:22;;;;;;;22.30;9.27;;;;;;;;;;4991192;28;20034;-76
2021/06/19 03:48:48;;;;;;;8.77;7.88;;;;;;;;;;4992788;28;20034;-77
2021/06/19 03:51:13;;;;;;;8.85;7.53;;;;;;;;;;4991124;28;20077;-77
2021/06/19 03:53:39;;;;;;;11.98;7.82;;;;;;;;;;5007358;28;20026;-78
2021/06/19 03:56:04;;;;;;;10.77;7.40;;;;;;;;;;4990985;28;20030;-77
2021/06/19 03:58:30;;;;;;;9.45;7.10;;;;;;;;;;4990789;28;20034;-77
2021/06/19 04:00:56;;;;;;;11.18;7.63;;;;;;;;;;4992273;28;20165;-77
2021/06/19 04:03:21;;;;;;;13.35;7.88;;;;;;;;;;5007029;28;20053;-78
2021/06/19 04:05:47;;;;;;;10.05;7.80;;;;;;;;;;4990963;28;20513;-77
2021/06/19 04:08:13;;;;;;;10.93;7.32;;;;;;;;;;5007253;28;20022;-77
2021/06/19 04:10:38;;;;;;;10.45;6.80;;;;;;;;;;4991975;28;20034;-77
2021/06/19 04:13:04;;;;;;;9.65;7.78;;;;;;;;;;4992040;28;20471;-77
2021/06/19 04:15:30;;;;;;;27.05;7.95;;;;;;;;;;4990657;28;20050;-78
2021/06/19 04:17:56;;;;;;;11.10;7.57;;;;;;;;;;4991901;28;20064;-76
2021/06/19 04:20:21;;;;;;;18.92;8.95;;;;;;;;;;4990318;28;20022;-78
2021/06/19 04:22:48;;;;;;;8.82;7.93;;;;;;;;;;4992092;28;20093;-77
2021/06/19 04:25:15;;;;;;;38.47;8.38;;;;;;;;;;4991570;28;20045;-76
2021/06/19 04:27:54;;;;;;;11.95;7.70;;;;;;;;;;4992075;28;20037;-77
2021/06/19 04:30:22;;;;;;;21.95;8.48;;;;;;;;;;4991616;28;20564;-77
2021/06/19 04:32:48;;;;;;;13.20;7.60;;;;;;;;;;5007082;28;20033;-77
2021/06/19 04:35:15;;;;;;;18.48;11.70;;;;;;;;;;4991526;28;20034;-75
2021/06/19 04:37:41;;;;;;;12.80;8.23;;;;;;;;;;4990441;28;20026;-78
2021/06/19 04:40:16;;;;;;;13.45;6.93;;;;;;;;;;4990563;28;20505;-78
2021/06/19 04:42:45;;;;;;;15.38;7.35;;;;;;;;;;4991973;28;20034;-77
2021/06/19 04:45:13;;;;;;;11.60;7.53;;;;;;;;;;4990397;28;20031;-79
2021/06/19 04:47:40;;;;;;;7.65;6.85;;;;;;;;;;4992524;28;20077;-78
2021/06/19 04:50:08;;;;;;;14.80;7.68;;;;;;;;;;4991629;28;20501;-78
2021/06/19 04:52:35;;;;;;;12.43;7.20;;;;;;;;;;4989667;28;20037;-78
2021/06/19 04:55:02;;;;;;;16.25;8.50;;;;;;;;;;4991498;28;20049;-78
2021/06/19 04:57:28;;;;;;;12.07;6.97;;;;;;;;;;4989426;28;20037;-78
2021/06/19 04:59:56;;;;;;;12.55;7.57;;;;;;;;;;4989863;28;20022;-78
2021/06/19 05:02:21;;;;;;;10.27;7.57;;;;;;;;;;5005845;28;20414;-77
2021/06/19 05:04:47;;;;;;;10.77;8.10;;;;;;;;;;5006193;28;20042;-77
2021/06/19 05:07:12;;;;;;;8.95;7.55;;;;;;;;;;4990170;28;20494;-76
2021/06/19 05:09:39;;;;;;;9.73;7.38;;;;;;;;;;4990703;28;20084;-77
2021/06/19 05:12:05;;;;;;;16.42;7.88;;;;;;;;;;4991286;28;20085;-77
2021/06/19 05:14:31;;;;;;;11.50;6.65;;;;;;;;;;4990733;28;20030;-78
2021/06/19 05:16:56;;;;;;;13.38;7.18;;;;;;;;;;4991394;28;20034;-78
2021/06/19 05:19:22;;;;;;;14.55;8.00;;;;;;;;;;4990884;28;20028;-78
2021/06/19 05:21:47;;;;;;;10.70;7.78;;;;;;;;;;4991111;28;20049;-77
2021/06/19 05:24:13;;;;;;;13.32;7.00;;;;;;;;;;4989818;28;20030;-78
2021/06/19 05:26:40;;;;;;;12.60;7.15;;;;;;;;;;4989448;28;20109;-78
2021/06/19 05:29:05;;;;;;;9.18;7.00;;;;;;;;;;4991161;28;20030;-78
2021/06/19 05:31:31;;;;;;;10.32;7.55;;;;;;;;;;4990677;28;20041;-77
2021/06/19 05:33:57;;;;;;;8.40;7.00;;;;;;;;;;4989335;28;20066;-77
2021/06/19 05:36:22;;;;;;;11.82;7.82;;;;;;;;;;4990428;28;20081;-78
2021/06/19 05:38:48;;;;;;;12.55;8.57;;;;;;;;;;4990492;28;20394;-78
2021/06/19 05:41:13;;;;;;;16.00;9.02;;;;;;;;;;4989111;28;20116;-78
2021/06/19 05:43:39;;;;;;;10.40;7.60;;;;;;;;;;4990274;28;20036;-78
2021/06/19 05:46:05;;;;;;;16.38;7.65;;;;;;;;;;4990441;28;20031;-77
2021/06/19 05:48:31;;;;;;;7.53;6.78;;;;;;;;;;4990916;28;20029;-77
2021/06/19 05:50:57;;;;;;;10.15;7.80;;;;;;;;;;5005741;28;20030;-78
2021/06/19 05:53:23;;;;;;;10.30;8.07;;;;;;;;;;4989179;28;20097;-77
2021/06/19 05:55:49;;;;;;;14.30;10.07;;;;;;;;;;4991373;28;20105;-76
2021/06/19 05:58:14;;;;;;;15.40;7.60;;;;;;;;;;4990499;28;20038;-77
2021/06/19 06:00:40;;;;;;;13.75;8.35;;;;;;;;;;4990605;28;20026;-77
2021/06/19 06:03:05;;;;;;;16.95;8.32;;;;;;;;;;4992650;28;20018;-77
2021/06/19 06:05:31;;;;;;;9.30;6.60;;;;;;;;;;4989773;28;20523;-77
2021/06/19 06:07:57;;;;;;;14.88;7.82;;;;;;;;;;4989278;28;20018;-77
2021/06/19 06:10:22;;;;;;;10.32;7.05;;;;;;;;;;4989351;28;20026;-78
2021/06/19 06:12:48;;;;;;;11.18;7.28;;;;;;;;;;5005424;28;20397;-78
2021/06/19 06:15:14;;;;;;;9.15;7.15;;;;;;;;;;4990334;28;20093;-77
2021/06/19 06:17:39;;;;;;;18.02;7.57;;;;;;;;;;4989008;28;20037;-77
2021/06/19 06:20:06;;;;;;;7.97;6.38;;;;;;;;;;5005420;28;20105;-78
2021/06/19 06:22:32;;;;;;;10.50;6.88;;;;;;;;;;5004831;28;20089;-76
2021/06/19 06:24:57;;;;;;;22.02;8.05;;;;;;;;;;4988910;28;20030;-78
2021/06/19 06:27:24;;;;;;;11.27;6.82;;;;;;;;;;4988854;28;20481;-78
2021/06/19 06:29:50;;;;;;;14.77;7.15;;;;;;;;;;4996604;28;20032;-77
2021/06/19 06:32:15;;;;;;;7.95;6.93;;;;;;;;;;4990007;28;20127;-79
2021/06/19 06:34:42;;;;;;;11.00;6.75;;;;;;;;;;4989005;28;20418;-78
2021/06/19 06:37:07;;;;;;;9.57;6.40;;;;;;;;;;4990375;28;20026;-79
2021/06/19 06:39:34;;;;;;;15.90;6.93;;;;;;;;;;4989881;28;20037;-79
2021/06/19 06:42:00;;;;;;;7.95;6.00;;;;;;;;;;4990103;28;20053;-77
2021/06/19 06:44:27;;;;;;;10.05;5.78;;;;;;;;;;4989998;28;20026;-78
2021/06/19 06:46:52;;;;;;;10.75;5.95;;;;;;;;;;4989884;28;20054;-78
2021/06/19 06:49:18;;;;;;;8.27;5.82;;;;;;;;;;4990037;28;20050;-78
2021/06/19 06:51:43;;;;;;;15.20;7.18;;;;;;;;;;4988430;28;20034;-78
2021/06/19 06:54:09;;;;;;;6.97;5.68;;;;;;;;;;4989141;28;20364;-78
2021/06/19 06:56:35;;;;;;;6.95;5.05;;;;;;;;;;4988610;28;20042;-78
2021/06/19 06:59:00;;;;;;;8.48;5.35;;;;;;;;;;4989885;28;20030;-77
2021/06/19 07:01:26;;;;;;;6.55;5.32;;;;;;;;;;5004792;28;20037;-77
2021/06/19 07:03:55;;;;;;;9.20;5.75;;;;;;;;;;4989939;28;20048;-77
2021/06/19 07:06:22;;;;;;;7.65;5.53;;;;;;;;;;4990869;28;20034;-78
2021/06/19 07:08:48;;;;;;;6.22;5.10;;;;;;;;;;4988524;28;20201;-79
2021/06/19 07:11:14;;;;;;;8.25;5.63;;;;;;;;;;4988588;28;20544;-77
2021/06/19 07:13:39;;;;;;;10.15;6.00;;;;;;;;;;4988256;28;20026;-78
2021/06/19 07:16:05;;;;;;;10.73;6.05;;;;;;;;;;4989743;28;20489;-78
2021/06/19 07:18:30;;;;;;;10.10;5.57;;;;;;;;;;4990405;28;20030;-77
2021/06/19 07:20:56;;;;;;;8.60;5.72;;;;;;;;;;4993514;28;20022;-79
2021/06/19 07:23:23;;;;;;;6.00;5.45;;;;;;;;;;4993176;28;20030;-79
2021/06/19 07:25:48;;;;;;;8.45;5.60;;;;;;;;;;4992031;28;20065;-78
2021/06/19 07:28:14;;;;;;;8.52;5.78;;;;;;;;;;4991666;28;20273;-78
2021/06/19 07:30:40;;;;;;;5.80;5.30;;;;;;;;;;4992728;28;20018;-78
2021/06/19 07:33:05;;;;;;;13.05;5.47;;;;;;;;;;4991609;28;20145;-79
2021/06/19 07:35:31;;;;;;;8.43;5.57;;;;;;;;;;4993019;28;20031;-79
2021/06/19 07:37:57;;;;;;;6.65;5.68;;;;;;;;;;5008441;28;20088;-77
2021/06/19 07:40:23;;;;;;;6.80;5.65;;;;;;;;;;4992300;28;20038;-79
2021/06/19 07:42:48;;;;;;;6.45;5.57;;;;;;;;;;4992200;28;20046;-79
2021/06/19 07:45:15;;;;;;;6.68;5.63;;;;;;;;;;4992085;28;20026;-77
2021/06/19 07:47:41;;;;;;;7.32;5.82;;;;;;;;;;5008560;28;20030;-79
2021/06/19 07:50:07;;;;;;;6.57;5.88;;;;;;;;;;4993821;28;20080;-78
2021/06/19 07:52:32;;;;;;;8.13;5.82;;;;;;;;;;4993100;28;20123;-77
2021/06/19 07:54:59;;;;;;;10.55;6.18;;;;;;;;;;4991784;28;20093;-78
2021/06/19 07:57:24;;;;;;;8.38;5.38;;;;;;;;;;4992922;28;20033;-76
2021/06/19 07:59:50;;;;;;;10.55;5.68;;;;;;;;;;4993558;28;20397;-78
2021/06/19 08:02:17;;;;;;;8.05;5.63;;;;;;;;;;5007896;28;20121;-78
2021/06/19 08:04:43;;;;;;;6.20;5.60;;;;;;;;;;4992431;28;20033;-78
2021/06/19 08:07:08;;;;;;;7.72;5.35;;;;;;;;;;4993570;28;20034;-79
2021/06/19 08:09:34;;;;;;;6.03;5.43;;;;;;;;;;4991713;28;20450;-78
2021/06/19 08:12:00;;;;;;;7.65;5.60;;;;;;;;;;4994798;28;20034;-78
2021/06/19 08:14:25;;;;;;;9.23;5.55;;;;;;;;;;4995186;28;20029;-76
2021/06/19 08:16:56;;;;;;;5.53;4.93;;;;;;;;;;4992395;28;20034;-78
2021/06/19 08:19:23;;;;;;;;;;;;;;;;;;4992824;28;20026;-77
2021/06/19 08:21:50;;;;;;;7.60;5.78;;;;;;;;;;4991913;28;19924;-78
2021/06/19 08:24:16;;;;;;;6.88;5.63;;;;;;;;;;4990721;28;20066;-78
2021/06/19 08:26:43;;;;;;;7.15;5.20;;;;;;;;;;4990711;28;20064;-78
2021/06/19 08:29:09;;;;;;;11.50;5.32;;;;;;;;;;4990460;28;20038;-78
2021/06/19 08:31:39;;;;;;;6.70;5.90;;;;;;;;;;4990191;28;20084;-77
2021/06/19 08:34:06;;;;;;;7.53;5.85;;;;;;;;;;5006575;28;20034;-77
2021/06/19 08:36:32;;;;;;;11.60;6.20;;;;;;;;;;4991557;28;20041;-79
2021/06/19 08:38:59;;;;;;;6.88;5.22;;;;;;;;;;4989958;28;20030;-79
2021/06/19 08:41:26;;;;;;;9.43;5.43;;;;;;;;;;4991425;28;20050;-78
2021/06/19 08:43:51;;;;;;;6.18;5.53;;;;;;;;;;5006389;28;20030;-77
2021/06/19 08:46:19;;;;;;;11.77;5.93;;;;;;;;;;4991957;28;20032;-78
2021/06/19 08:48:49;;;;;;;9.27;5.70;;;;;;;;;;4991687;28;20033;-77
2021/06/19 08:51:15;;;;;;;6.95;5.78;;;;;;;;;;5006682;28;20044;-76
2021/06/19 08:53:41;;;;;;;10.18;5.57;;;;;;;;;;4990034;28;20022;-77
2021/06/19 08:56:06;;;;;;;8.07;6.00;;;;;;;;;;4991692;28;20033;-78
2021/06/19 08:58:32;;;;;;;12.57;6.38;;;;;;;;;;4991003;28;20077;-77
2021/06/19 09:00:57;;;;;;;9.38;6.03;;;;;;;;;;4991046;28;20530;-78
2021/06/19 09:03:25;;;;;;;7.80;5.75;;;;;;;;;;4991363;28;20031;-78
2021/06/19 09:05:52;;;;;;;9.80;5.38;;;;;;;;;;5006355;28;20030;-77
2021/06/19 09:08:19;;;;;;;10.90;6.03;;;;;;;;;;4990869;28;20034;-78
2021/06/19 09:10:45;;;;;;;11.70;5.97;;;;;;;;;;4989804;28;20026;-79
2021/06/19 09:13:13;;;;;;;10.93;6.22;;;;;;;;;;4990146;28;20026;-78
2021/06/19 09:15:54;;;;;;;6.75;5.93;;;;;;;;;;4989664;28;20033;-78
2021/06/19 09:18:30;;;;;;;9.95;5.60;;;;;;;;;;4993696;28;20034;-78
2021/06/19 09:21:04;;;;;;;9.93;6.00;;;;;;;;;;4992044;28;20102;-79
2021/06/19 09:23:29;;;;;;;11.00;5.75;;;;;;;;;;4991050;28;20073;-77
2021/06/19 09:26:18;;;;;;;10.02;5.90;;;;;;;;;;4989640;28;20026;-78
2021/06/19 09:28:59;;;;;;;8.77;5.97;;;;;;;;;;4990764;28;20052;-76
2021/06/19 09:31:30;;;;;;;5.90;5.30;;;;;;;;;;4990785;28;20022;-77
2021/06/19 09:34:09;;;;;;;6.13;5.53;;;;;;;;;;4989589;28;20479;-78
2021/06/19 09:37:04;;;;;;;8.02;5.63;;;;;;;;;;4990480;28;20046;-77
2021/06/19 09:39:32;;;;;;;14.13;5.70;;;;;;;;;;4988910;28;20410;-77
2021/06/19 09:42:02;;;;;;;13.82;5.65;;;;;;;;;;4989814;28;20074;-78
2021/06/19 09:44:43;;;;;;;11.93;5.35;;;;;;;;;;4989001;28;20413;-78
2021/06/19 09:47:11;;;;;;;8.40;4.70;;;;;;;;;;4988698;28;20049;-78
2021/06/19 09:49:42;;;;;;;7.38;5.00;;;;;;;;;;4989018;28;20390;-78
2021/06/19 09:52:09;;;;;;;8.95;5.15;;;;;;;;;;4992395;28;20022;-78
2021/06/19 09:54:45;;;;;;;7.30;5.13;;;;;;;;;;5006876;28;20492;-78
2021/06/19 09:57:14;;;;;;;6.97;5.32;;;;;;;;;;4990763;28;20135;-78
2021/06/19 09:59:40;;;;;;;10.80;5.70;;;;;;;;;;4988809;28;20490;-77
2021/06/19 10:02:30;;;;;;;7.03;5.65;;;;;;;;;;4990010;28;20033;-78
2021/06/19 10:04:58;;;;;;;6.45;5.43;;;;;;;;;;4990047;28;20069;-79
2021/06/19 10:07:27;;;;;;;7.22;5.82;;;;;;;;;;4990182;28;20554;-78
2021/06/19 10:09:54;;;;;;;7.07;5.13;;;;;;;;;;4990548;28;20397;-78
2021/06/19 10:12:26;;;;;;;6.45;5.72;;;;;;;;;;5007313;28;20040;-78
2021/06/19 10:15:06;;;;;;;8.00;5.95;;;;;;;;;;4989223;28;20030;-78
2021/06/19 10:17:34;;;;;;;9.50;4.78;;;;;;;;;;4988994;28;20033;-79
2021/06/19 10:20:02;;;;;;;6.15;5.55;;;;;;;;;;4988745;28;20034;-78
2021/06/19 10:22:30;;;;;;;5.35;4.85;;;;;;;;;;4988981;28;20030;-78
2021/06/19 10:24:59;;;;;;;13.75;5.78;;;;;;;;;;4988540;28;20061;-77
2021/06/19 10:27:29;;;;;;;9.10;6.10;;;;;;;;;;4991722;28;20023;-78
2021/06/19 10:30:00;;;;;;;6.18;5.22;;;;;;;;;;4990212;28;20090;-78
2021/06/19 10:32:48;;;;;;;7.20;5.50;;;;;;;;;;4990186;28;20097;-76
2021/06/19 10:35:17;;;;;;;6.18;4.93;;;;;;;;;;4990321;28;20049;-77
2021/06/19 10:37:44;;;;;;;8.38;5.00;;;;;;;;;;4989853;28;20562;-78
2021/06/19 10:40:22;;;;;;;6.70;5.15;;;;;;;;;;4988647;28;20054;-78
2021/06/19 10:42:49;;;;;;;7.53;5.18;;;;;;;;;;4988159;28;20050;-78
2021/06/19 10:45:20;;;;;;;6.63;5.40;;;;;;;;;;4988417;28;20018;-78
2021/06/19 10:47:58;;;;;;;;;;;;;;;;;;4988944;28;20036;-77
2021/06/19 10:50:24;;;;;;;5.88;5.28;;;;;;;;;;4990337;28;20009;-77
2021/06/19 10:53:05;;;;;;;9.20;5.93;;;;;;;;;;4992930;28;20027;-78
2021/06/19 10:55:32;;;;;;;9.20;5.47;;;;;;;;;;4992555;28;20054;-77
2021/06/19 10:58:15;;;;;;;5.50;5.00;;;;;;;;;;4992111;28;20030;-77
2021/06/19 11:00:51;;;;;;;9.02;5.10;;;;;;;;;;5007031;28;20032;-78
2021/06/19 11:03:18;;;;;;;7.00;5.50;;;;;;;;;;4994316;28;20062;-79
2021/06/19 11:05:49;;;;;;;5.43;5.03;;;;;;;;;;4995937;28;20022;-79
2021/06/19 11:08:16;;;;;;;6.45;5.10;;;;;;;;;;4995739;28;20036;-79
2021/06/19 11:10:46;;;;;;;10.45;5.65;;;;;;;;;;4994836;28;20031;-78
2021/06/19 11:13:30;;;;;;;5.65;4.78;;;;;;;;;;4994579;28;20026;-76
2021/06/19 11:15:59;;;;;;;7.22;5.22;;;;;;;;;;4993321;28;20105;-79
2021/06/19 11:18:50;;;;;;;6.38;5.30;;;;;;;;;;4994441;28;20105;-78
2021/06/19 11:21:15;;;;;;;9.65;4.95;;;;;;;;;;4994622;28;20053;-77
2021/06/19 11:23:59;;;;;;;5.03;4.63;;;;;;;;;;4993202;28;20065;-78
2021/06/19 11:29:36;;;;;;;6.45;4.78;;;;;;;;;;4992983;28;20360;-78
2021/06/19 11:32:28;;;;;;;4.95;4.55;;;;;;;;;;4994209;28;20034;-79
2021/06/19 11:35:20;;;;;;;8.75;4.95;;;;;;;;;;4994489;28;20029;-77
2021/06/19 11:37:53;;;;;;;5.78;5.18;;;;;;;;;;4993838;28;20042;-78
2021/06/19 11:40:33;;;;;;;7.18;5.57;;;;;;;;;;4993640;28;20041;-78
2021/06/19 11:43:00;;;;;;;8.90;5.80;;;;;;;;;;4991271;28;20097;-78
2021/06/19 11:45:25;;;;;;;7.03;5.97;;;;;;;;;;4991410;28;20488;-79
2021/06/19 11:48:14;;;;;;;7.57;5.70;;;;;;;;;;5007432;28;20113;-78
2021/06/19 11:50:42;;;;;;;10.23;5.05;;;;;;;;;;4975292;28;20446;-78
2021/06/19 11:53:33;;;;;;;4.85;4.40;;;;;;;;;;4991258;28;20034;-77
2021/06/19 11:56:18;;;;;;;13.65;5.60;;;;;;;;;;4990662;28;20097;-78
2021/06/19 11:58:57;;;;;;;6.95;5.18;;;;;;;;;;4992307;28;20034;-78
2021/06/19 12:01:31;;;;;;;8.52;4.72;;;;;;;;;;4992882;28;20014;-78
2021/06/19 12:04:03;;;;;;;5.45;4.40;;;;;;;;;;5006446;28;20050;-78
2021/06/19 12:06:35;;;;;;;6.45;5.22;;;;;;;;;;4990983;28;20042;-78
2021/06/19 12:09:06;;;;;;;6.35;5.38;;;;;;;;;;4992503;28;20022;-79
2021/06/19 12:11:38;;;;;;;8.05;4.88;;;;;;;;;;4993927;28;20022;-78
2021/06/19 12:14:33;;;;;;;5.72;5.22;;;;;;;;;;4994030;28;20026;-79
2021/06/19 12:17:02;;;;;;;8.48;4.95;;;;;;;;;;4993454;28;20099;-78
2021/06/19 12:19:35;;;;;;;5.10;4.57;;;;;;;;;;4992434;28;20029;-78
2021/06/19 12:22:06;;;;;;;5.03;4.50;;;;;;;;;;4993542;28;20505;-78
2021/06/19 12:24:33;;;;;;;8.32;5.38;;;;;;;;;;4991430;28;20034;-77
2021/06/19 12:27:18;;;;;;;5.95;5.35;;;;;;;;;;4991053;28;20034;-78
2021/06/19 12:29:54;;;;;;;7.97;5.60;;;;;;;;;;4992063;28;20050;-78
2021/06/19 12:32:28;;;;;;;8.80;5.97;;;;;;;;;;4992602;28;20098;-80
2021/06/19 12:35:17;;;;;;;8.27;5.20;;;;;;;;;;4991433;28;20117;-78
2021/06/19 12:37:53;;;;;;;6.72;4.60;;;;;;;;;;4991010;28;20368;-77
2021/06/19 12:40:24;;;;;;;11.30;5.68;;;;;;;;;;4991233;28;20513;-79
2021/06/19 12:43:00;;;;;;;9.27;5.82;;;;;;;;;;4990532;28;20050;-78
2021/06/19 12:45:46;;;;;;;8.35;5.47;;;;;;;;;;4992283;28;20065;-78
2021/06/19 12:48:38;;;;;;;5.15;4.57;;;;;;;;;;5006809;28;20033;-79
2021/06/19 12:51:06;;;;;;;7.22;5.20;;;;;;;;;;4991542;28;20072;-77
2021/06/19 12:53:36;;;;;;;8.63;5.75;;;;;;;;;;4991279;28;20382;-79
2021/06/19 12:56:03;;;;;;;;;;;;;;;;;;4991598;28;20100;-78
2021/06/19 12:58:42;;;;;;;10.40;6.00;;;;;;;;;;4989918;28;19984;-79
2021/06/19 13:01:28;;;;;;;7.07;5.35;;;;;;;;;;4989897;28;20031;-78
2021/06/19 13:03:56;;;;;;;5.88;4.82;;;;;;;;;;4989571;28;20499;-78
2021/06/19 13:06:41;;;;;;;5.75;4.80;;;;;;;;;;4990054;28;20034;-77
2021/06/19 13:09:12;;;;;;;7.80;4.90;;;;;;;;;;4990134;28;20057;-77
2021/06/19 13:11:39;;;;;;;12.60;4.68;;;;;;;;;;4994218;28;20037;-78
2021/06/19 13:14:07;;;;;;;6.43;5.13;;;;;;;;;;4993836;28;20037;-78
2021/06/19 13:16:38;;;;;;;5.43;4.93;;;;;;;;;;4991173;28;20029;-77
2021/06/19 13:19:16;;;;;;;6.97;5.20;;;;;;;;;;4989311;28;20034;-78
2021/06/19 13:21:44;;;;;;;5.75;5.05;;;;;;;;;;5005793;28;20037;-77
2021/06/19 13:24:20;;;;;;;8.27;5.63;;;;;;;;;;4990708;28;20085;-77
2021/06/19 13:26:46;;;;;;;5.10;4.47;;;;;;;;;;4990882;28;20022;-78
2021/06/19 13:29:12;;;;;;;5.90;4.95;;;;;;;;;;5005891;28;20061;-78
2021/06/19 13:31:40;;;;;;;6.13;5.15;;;;;;;;;;4989655;28;20041;-77
2021/06/19 13:34:21;;;;;;;5.93;4.22;;;;;;;;;;4989123;28;20026;-78
2021/06/19 13:36:48;;;;;;;6.93;5.45;;;;;;;;;;4989638;28;20044;-77
2021/06/19 13:39:14;;;;;;;9.25;5.38;;;;;;;;;;4991252;28;20030;-77
2021/06/19 13:41:43;;;;;;;7.55;4.85;;;;;;;;;;4990416;28;20050;-78
2021/06/19 13:44:19;;;;;;;6.22;5.47;;;;;;;;;;4988870;28;20445;-81
2021/06/19 13:46:46;;;;;;;6.15;5.18;;;;;;;;;;4989588;28;20047;-76
2021/06/19 13:49:14;;;;;;;9.63;7.15;;;;;;;;;;4988939;28;20461;-79
2021/06/19 13:51:43;;;;;;;8.68;4.88;;;;;;;;;;4988918;28;20600;-76
2021/06/19 13:54:09;;;;;;;5.20;4.57;;;;;;;;;;4990329;28;20104;-78
2021/06/19 13:56:34;;;;;;;5.20;4.70;;;;;;;;;;4989254;28;20022;-78
2021/06/19 13:59:00;;;;;;;5.55;4.80;;;;;;;;;;4990405;28;20108;-78
2021/06/19 14:01:27;;;;;;;5.85;4.50;;;;;;;;;;5005680;28;20030;-77
2021/06/19 14:03:52;;;;;;;6.38;4.93;;;;;;;;;;4990383;28;20029;-77
2021/06/19 14:06:18;;;;;;;7.50;4.53;;;;;;;;;;4990665;28;20030;-78
2021/06/19 14:08:54;;;;;;;5.15;4.68;;;;;;;;;;4990250;28;20030;-78
2021/06/19 14:11:28;;;;;;;5.63;4.10;;;;;;;;;;4990333;28;20061;-78
2021/06/19 14:13:54;;;;;;;5.57;4.60;;;;;;;;;;4990127;28;20026;-78
2021/06/19 14:16:20;;;;;;;5.78;4.47;;;;;;;;;;4989118;28;20113;-78
2021/06/19 14:18:46;;;;;;;4.78;4.38;;;;;;;;;;4988779;28;20112;-78
2021/06/19 14:21:14;;;;;;;8.18;4.57;;;;;;;;;;4990196;28;20035;-78
2021/06/19 14:23:41;;;;;;;5.72;4.45;;;;;;;;;;5005143;28;20049;-77
2021/06/19 14:26:10;;;;;;;6.72;4.40;;;;;;;;;;4991728;28;20312;-78
2021/06/19 14:28:38;;;;;;;4.75;4.05;;;;;;;;;;4994703;28;20059;-78
2021/06/19 14:31:05;;;;;;;10.43;4.50;;;;;;;;;;4994997;28;20076;-77
2021/06/19 14:33:30;;;;;;;4.95;4.03;;;;;;;;;;4993259;28;20045;-77
2021/06/19 14:35:56;;;;;;;8.68;4.57;;;;;;;;;;4993878;28;20490;-78
2021/06/19 14:38:21;;;;;;;4.75;4.07;;;;;;;;;;5009885;28;20408;-77
2021/06/19 14:40:47;;;;;;;5.38;4.07;;;;;;;;;;4994700;28;20018;-78
2021/06/19 14:43:13;;;;;;;7.60;5.43;;;;;;;;;;4994479;28;20287;-78
2021/06/19 14:45:41;;;;;;;4.35;3.95;;;;;;;;;;4993170;28;20042;-78
2021/06/19 14:48:07;;;;;;;5.15;4.18;;;;;;;;;;4994636;28;20057;-78
2021/06/19 14:50:33;;;;;;;6.25;4.93;;;;;;;;;;4996239;28;20168;-78